createdAt,value
2017-10-24T00:02:04.159Z,9.20
2017-10-24T00:04:31.735Z,9.30
2017-10-24T00:07:00.185Z,9.30
2017-10-24T00:09:27.764Z,9.20
2017-10-24T00:11:57.564Z,9.20
2017-10-24T00:14:25.133Z,9.20
2017-10-24T00:16:52.761Z,9.20
2017-10-24T00:19:20.327Z,9.20
2017-10-24T00:21:47.897Z,9.20
2017-10-24T00:24:15.492Z,9.20
2017-10-24T00:26:43.824Z,9.20
2017-10-24T00:29:11.416Z,9.20
2017-10-24T00:31:38.983Z,9.30
2017-10-24T00:34:08.100Z,9.20
2017-10-24T00:36:36.432Z,9.30
2017-10-24T00:39:03.996Z,9.20
2017-10-24T00:41:31.589Z,9.20
2017-10-24T00:43:59.924Z,9.30
2017-10-24T00:46:27.515Z,9.20
2017-10-24T00:48:56.776Z,9.30
2017-10-24T00:51:24.363Z,9.30
2017-10-24T00:53:51.924Z,9.30
2017-10-24T00:56:19.518Z,9.30
2017-10-24T00:58:47.847Z,9.20
2017-10-24T01:01:15.712Z,9.20
2017-10-24T01:03:43.276Z,9.20
2017-10-24T01:06:10.845Z,9.20
2017-10-24T01:08:38.485Z,9.20
2017-10-24T01:11:06.074Z,9.20
2017-10-24T01:13:33.915Z,9.30
2017-10-24T01:16:01.734Z,9.30
2017-10-24T01:18:30.364Z,9.30
2017-10-24T01:20:58.217Z,9.30
2017-10-24T01:23:26.036Z,9.20
2017-10-24T01:25:53.700Z,9.30
2017-10-24T01:28:21.259Z,9.30
2017-10-24T01:30:50.360Z,9.30
2017-10-24T01:33:18.204Z,9.30
2017-10-24T01:35:45.797Z,9.30
2017-10-24T01:38:14.129Z,9.30
2017-10-24T01:40:41.715Z,9.30
2017-10-24T01:43:09.284Z,9.30
2017-10-24T01:45:36.876Z,9.30
2017-10-24T01:48:05.200Z,9.30
2017-10-24T01:50:32.788Z,9.30
2017-10-24T01:53:00.365Z,9.30
2017-10-24T01:55:28.721Z,9.30
2017-10-24T01:57:58.608Z,9.30
2017-10-24T02:00:26.209Z,9.30
2017-10-24T02:02:53.868Z,9.30
2017-10-24T02:05:21.472Z,9.30
2017-10-24T02:07:49.373Z,9.30
2017-10-24T02:10:16.939Z,9.20
2017-10-24T02:12:44.532Z,9.20
2017-10-24T02:15:12.869Z,9.20
2017-10-24T02:17:40.454Z,9.20
2017-10-24T02:20:08.836Z,9.20
2017-10-24T02:22:36.423Z,9.20
2017-10-24T02:25:04.771Z,9.20
2017-10-24T02:27:32.684Z,9.20
2017-10-24T02:30:00.249Z,9.10
2017-10-24T02:32:27.815Z,9.20
2017-10-24T02:34:56.747Z,9.20
2017-10-24T02:37:24.316Z,9.20
2017-10-24T02:39:51.904Z,9.20
2017-10-24T02:42:20.237Z,9.20
2017-10-24T02:44:47.829Z,9.20
2017-10-24T02:47:16.169Z,9.20
2017-10-24T02:49:43.860Z,9.20
2017-10-24T02:52:11.523Z,9.20
2017-10-24T02:54:39.124Z,9.20
2017-10-24T02:57:06.689Z,9.20
2017-10-24T02:59:34.367Z,9.20
2017-10-24T03:02:01.936Z,9.20
2017-10-24T03:04:29.504Z,9.20
2017-10-24T03:06:58.512Z,9.20
2017-10-24T03:09:26.104Z,9.20
2017-10-24T03:11:55.361Z,9.20
2017-10-24T03:14:22.953Z,9.10
2017-10-24T03:16:50.519Z,9.20
2017-10-24T03:19:19.084Z,9.10
2017-10-24T03:21:46.653Z,9.10
2017-10-24T03:24:16.469Z,9.10
2017-10-24T03:26:44.060Z,9.10
2017-10-24T03:29:11.628Z,9.10
2017-10-24T03:31:39.221Z,9.00
2017-10-24T03:34:06.788Z,9.00
2017-10-24T03:36:34.380Z,8.90
2017-10-24T03:39:02.712Z,8.90
2017-10-24T03:41:30.300Z,8.90
2017-10-24T03:43:57.874Z,8.80
2017-10-24T03:46:26.228Z,8.80
2017-10-24T03:48:53.796Z,8.70
2017-10-24T03:51:21.464Z,8.80
2017-10-24T03:53:49.029Z,8.80
2017-10-24T03:56:16.595Z,8.80
2017-10-24T03:58:44.188Z,8.80
2017-10-24T04:01:11.760Z,8.80
2017-10-24T04:03:39.351Z,8.80
2017-10-24T04:06:06.916Z,8.90
2017-10-24T04:08:34.505Z,8.80
2017-10-24T04:11:02.846Z,8.90
2017-10-24T04:13:30.641Z,8.90
2017-10-24T04:15:58.208Z,8.80
2017-10-24T04:18:25.780Z,8.80
2017-10-24T04:20:55.052Z,8.80
2017-10-24T04:23:22.612Z,8.80
2017-10-24T04:25:50.196Z,8.80
2017-10-24T04:28:18.537Z,8.90
2017-10-24T04:30:46.287Z,8.90
2017-10-24T04:33:13.950Z,9.00
2017-10-24T04:35:41.512Z,9.00
2017-10-24T04:38:09.109Z,9.00
2017-10-24T04:40:36.676Z,9.00
2017-10-24T04:43:05.033Z,9.10
2017-10-24T04:45:32.840Z,9.10
2017-10-24T04:48:01.201Z,9.10
2017-10-24T04:50:28.776Z,9.10
2017-10-24T04:52:58.840Z,9.00
2017-10-24T04:55:26.722Z,9.00
2017-10-24T04:57:56.725Z,9.10
2017-10-24T05:00:24.610Z,9.00
2017-10-24T05:02:52.176Z,9.00
2017-10-24T05:05:19.761Z,9.00
2017-10-24T05:07:48.128Z,9.00
2017-10-24T05:10:15.720Z,9.00
2017-10-24T05:12:43.288Z,9.00
2017-10-24T05:15:10.871Z,9.00
2017-10-24T05:17:39.304Z,8.90
2017-10-24T05:20:07.660Z,8.90
2017-10-24T05:22:35.224Z,8.80
2017-10-24T05:25:04.337Z,8.80
2017-10-24T05:27:32.668Z,8.80
2017-10-24T05:30:00.268Z,8.80
2017-10-24T05:32:27.888Z,8.80
2017-10-24T05:34:57.091Z,8.80
2017-10-24T05:37:24.684Z,8.80
2017-10-24T05:39:52.249Z,8.80
2017-10-24T05:42:19.837Z,8.80
2017-10-24T05:44:48.168Z,8.80
2017-10-24T05:47:16.112Z,8.80
2017-10-24T05:49:43.684Z,8.80
2017-10-24T05:52:11.276Z,8.80
2017-10-24T05:54:38.850Z,8.70
2017-10-24T05:57:07.425Z,8.70
2017-10-24T05:59:35.088Z,8.70
2017-10-24T06:02:02.933Z,8.70
2017-10-24T06:04:30.619Z,8.60
2017-10-24T06:06:58.192Z,8.60
2017-10-24T06:09:26.555Z,8.60
2017-10-24T06:11:56.549Z,8.50
2017-10-24T06:14:24.137Z,8.50
2017-10-24T06:16:51.704Z,8.60
2017-10-24T06:19:20.180Z,8.60
2017-10-24T06:21:47.747Z,8.60
2017-10-24T06:24:15.648Z,8.70
2017-10-24T06:26:43.237Z,8.70
2017-10-24T06:29:10.844Z,8.70
2017-10-24T06:31:39.204Z,8.80
2017-10-24T06:34:06.774Z,8.80
2017-10-24T06:36:34.437Z,8.80
2017-10-24T06:39:02.277Z,8.80
2017-10-24T06:41:29.893Z,8.90
2017-10-24T06:43:58.733Z,9.10
2017-10-24T06:46:26.292Z,9.10
2017-10-24T06:48:53.881Z,9.40
2017-10-24T06:51:22.351Z,9.60
2017-10-24T06:53:50.685Z,9.60
2017-10-24T06:56:18.249Z,9.60
2017-10-24T06:58:45.841Z,9.70
2017-10-24T07:01:13.408Z,9.70
2017-10-24T07:03:41.184Z,9.60
2017-10-24T07:06:08.748Z,9.50
2017-10-24T07:08:36.312Z,9.50
2017-10-24T07:11:04.672Z,9.40
2017-10-24T07:13:32.245Z,9.40
2017-10-24T07:15:59.827Z,9.50
2017-10-24T07:18:28.161Z,9.50
2017-10-24T07:20:56.828Z,9.50
2017-10-24T07:23:24.400Z,9.50
2017-10-24T07:25:51.987Z,9.50
2017-10-24T07:28:20.315Z,9.50
2017-10-24T07:30:47.908Z,9.40
2017-10-24T07:33:15.471Z,9.50
2017-10-24T07:35:43.252Z,9.50
2017-10-24T07:38:10.817Z,9.50
2017-10-24T07:40:38.384Z,9.50
2017-10-24T07:43:06.749Z,9.50
2017-10-24T07:45:34.312Z,9.50
2017-10-24T07:48:02.072Z,9.50
2017-10-24T07:50:29.633Z,9.50
2017-10-24T07:52:57.641Z,9.50
2017-10-24T07:55:25.228Z,9.60
2017-10-24T07:57:52.792Z,9.60
2017-10-24T08:00:20.357Z,9.50
2017-10-24T08:02:48.205Z,9.50
2017-10-24T08:05:15.773Z,9.50
2017-10-24T08:07:43.335Z,9.60
2017-10-24T08:10:10.951Z,9.60
2017-10-24T08:12:39.285Z,9.60
2017-10-24T08:15:06.878Z,9.50
2017-10-24T08:17:34.440Z,9.60
2017-10-24T08:20:02.039Z,9.60
2017-10-24T08:22:29.617Z,9.70
2017-10-24T08:24:58.644Z,9.80
2017-10-24T08:27:26.212Z,9.80
2017-10-24T08:29:53.810Z,9.90
2017-10-24T08:32:21.381Z,10.10
2017-10-24T08:34:48.992Z,10.10
2017-10-24T08:37:17.329Z,10.50
2017-10-24T08:39:44.920Z,10.40
2017-10-24T08:42:12.548Z,10.60
2017-10-24T08:44:40.117Z,10.80
2017-10-24T08:47:07.713Z,10.80
2017-10-24T08:49:35.284Z,10.90
2017-10-24T08:52:02.876Z,11.10
2017-10-24T08:54:30.448Z,11.30
2017-10-24T08:56:58.908Z,11.80
2017-10-24T08:59:27.241Z,12.00
2017-10-24T09:01:56.668Z,12.10
2017-10-24T09:04:25.768Z,12.00
2017-10-24T09:06:56.192Z,12.00
2017-10-24T09:12:18.820Z,12.00
2017-10-24T09:14:46.384Z,12.00
2017-10-24T09:20:19.133Z,11.90
2017-10-24T09:22:47.487Z,11.30
2017-10-24T09:25:15.061Z,11.30
2017-10-24T09:27:42.651Z,11.70
2017-10-24T09:30:10.984Z,12.20
2017-10-24T09:32:38.580Z,12.20
2017-10-24T09:35:06.918Z,12.10
2017-10-24T09:37:34.516Z,12.10
2017-10-24T09:40:02.880Z,11.80
2017-10-24T09:42:30.448Z,11.80
2017-10-24T09:44:58.052Z,11.70
2017-10-24T09:47:25.668Z,11.60
2017-10-24T09:49:55.980Z,11.40
2017-10-24T09:52:23.558Z,11.30
2017-10-24T09:54:51.156Z,11.40
2017-10-24T09:57:18.728Z,11.40
2017-10-24T09:59:46.341Z,11.40
2017-10-24T10:02:13.917Z,11.30
2017-10-24T10:04:42.276Z,11.20
2017-10-24T10:07:10.772Z,11.20
2017-10-24T10:09:39.134Z,11.20
2017-10-24T10:12:09.394Z,11.20
2017-10-24T10:14:37.945Z,11.40
2017-10-24T10:17:05.516Z,11.40
2017-10-24T10:19:33.889Z,11.60
2017-10-24T10:22:01.549Z,11.60
2017-10-24T10:24:31.800Z,11.50
2017-10-24T10:26:59.529Z,11.50
2017-10-24T10:29:27.867Z,11.40
2017-10-24T10:31:57.800Z,11.40
2017-10-24T10:34:25.392Z,11.40
2017-10-24T10:36:52.960Z,11.30
2017-10-24T10:39:21.323Z,11.50
2017-10-24T10:41:49.668Z,11.50
2017-10-24T10:44:17.265Z,11.50
2017-10-24T10:46:44.827Z,11.70
2017-10-24T10:49:12.416Z,11.90
2017-10-24T10:51:40.757Z,12.00
2017-10-24T10:54:08.469Z,12.10
2017-10-24T10:56:36.037Z,12.20
2017-10-24T10:59:03.605Z,12.10
2017-10-24T11:01:31.197Z,11.90
2017-10-24T11:03:58.879Z,11.90
2017-10-24T11:06:26.467Z,11.90
2017-10-24T11:08:55.836Z,12.40
2017-10-24T11:11:23.404Z,12.30
2017-10-24T11:13:50.992Z,12.90
2017-10-24T11:16:18.564Z,13.00
2017-10-24T11:18:46.153Z,12.90
2017-10-24T11:21:13.728Z,12.80
2017-10-24T11:23:41.323Z,12.80
2017-10-24T11:26:09.660Z,12.90
2017-10-24T11:28:37.248Z,12.80
2017-10-24T11:31:04.811Z,13.30
2017-10-24T11:33:32.404Z,13.40
2017-10-24T11:35:59.977Z,13.50
2017-10-24T11:38:27.576Z,13.80
2017-10-24T11:40:57.667Z,14.40
2017-10-24T11:43:25.264Z,14.40
2017-10-24T11:45:52.851Z,14.60
2017-10-24T11:48:21.204Z,14.70
2017-10-24T11:50:48.772Z,14.70
2017-10-24T11:53:17.873Z,14.50
2017-10-24T11:55:45.439Z,14.50
2017-10-24T11:58:13.804Z,13.90
2017-10-24T12:00:41.368Z,13.90
2017-10-24T12:03:08.966Z,14.00
2017-10-24T12:05:36.588Z,13.90
2017-10-24T12:08:04.175Z,13.90
2017-10-24T12:10:32.507Z,13.70
2017-10-24T12:13:00.097Z,13.60
2017-10-24T12:15:28.429Z,14.40
2017-10-24T12:17:57.835Z,14.30
2017-10-24T12:20:25.419Z,14.30
2017-10-24T12:22:53.003Z,14.80
2017-10-24T12:25:20.612Z,15.10
2017-10-24T12:27:48.176Z,14.60
2017-10-24T12:30:15.764Z,14.20
2017-10-24T12:32:43.331Z,14.10
2017-10-24T12:35:10.920Z,14.20
2017-10-24T12:37:39.254Z,14.90
2017-10-24T12:40:06.843Z,14.90
2017-10-24T12:42:37.068Z,14.90
2017-10-24T12:45:07.341Z,14.80
2017-10-24T12:47:34.910Z,14.80
2017-10-24T12:50:02.509Z,14.20
2017-10-24T12:52:30.075Z,13.90
2017-10-24T12:54:58.949Z,13.50
2017-10-24T12:57:33.071Z,13.50
2017-10-24T13:00:04.896Z,13.30
2017-10-24T13:02:32.473Z,13.30
2017-10-24T13:05:00.854Z,13.20
2017-10-24T13:07:28.416Z,13.20
2017-10-24T13:09:56.795Z,12.90
2017-10-24T13:12:24.363Z,12.80
2017-10-24T13:14:53.459Z,12.80
2017-10-24T13:17:21.029Z,12.80
2017-10-24T13:19:48.624Z,12.70
2017-10-24T13:22:16.192Z,12.70
2017-10-24T13:24:43.780Z,12.70
2017-10-24T13:27:11.373Z,12.70
2017-10-24T13:29:38.955Z,12.70
2017-10-24T13:32:07.289Z,13.00
2017-10-24T13:34:34.876Z,13.00
2017-10-24T13:37:02.448Z,13.10
2017-10-24T13:39:30.797Z,13.10
2017-10-24T13:41:58.359Z,13.10
2017-10-24T13:44:25.940Z,13.00
2017-10-24T13:46:53.591Z,12.90
2017-10-24T13:49:21.181Z,12.90
2017-10-24T13:51:49.532Z,13.10
2017-10-24T13:54:18.625Z,13.10
2017-10-24T13:56:46.196Z,13.10
2017-10-24T13:59:13.780Z,13.30
2017-10-24T14:01:42.116Z,13.10
2017-10-24T14:04:15.545Z,13.10
2017-10-24T14:09:48.500Z,12.90
2017-10-24T14:12:16.067Z,12.80
2017-10-24T14:14:43.653Z,12.70
2017-10-24T14:17:11.308Z,12.60
2017-10-24T14:19:40.408Z,12.30
2017-10-24T14:22:07.967Z,12.20
2017-10-24T14:24:35.556Z,12.20
2017-10-24T14:27:04.144Z,12.10
2017-10-24T14:29:32.516Z,12.10
2017-10-24T14:32:00.844Z,12.10
2017-10-24T14:34:28.412Z,12.10
2017-10-24T14:36:56.813Z,12.10
2017-10-24T14:39:24.377Z,12.10
2017-10-24T14:41:51.967Z,12.10
2017-10-24T14:44:20.323Z,12.10
2017-10-24T14:46:47.904Z,12.10
2017-10-24T14:49:16.236Z,12.20
2017-10-24T14:51:43.822Z,12.20
2017-10-24T14:54:11.396Z,12.20
2017-10-24T14:56:39.745Z,12.20
2017-10-24T14:59:07.307Z,12.20
2017-10-24T15:01:36.407Z,12.20
2017-10-24T15:04:03.972Z,12.20
2017-10-24T15:06:32.321Z,12.20
2017-10-24T15:08:59.916Z,12.20
2017-10-24T15:11:27.504Z,12.20
2017-10-24T15:13:56.784Z,12.20
2017-10-24T15:16:24.440Z,12.10
2017-10-24T15:18:51.999Z,12.10
2017-10-24T15:21:19.670Z,12.10
2017-10-24T15:23:47.236Z,12.00
2017-10-24T15:26:15.591Z,11.90
2017-10-24T15:28:43.151Z,11.90
2017-10-24T15:31:10.740Z,11.90
2017-10-24T15:33:39.071Z,11.80
2017-10-24T15:36:06.656Z,11.80
2017-10-24T15:38:34.216Z,11.80
2017-10-24T15:41:01.807Z,11.80
2017-10-24T15:43:30.165Z,11.80
2017-10-24T15:45:57.761Z,11.80
2017-10-24T15:48:25.385Z,11.80
2017-10-24T15:50:53.747Z,11.80
2017-10-24T15:53:21.312Z,11.70
2017-10-24T15:55:49.219Z,11.80
2017-10-24T15:58:17.556Z,11.80
2017-10-24T16:00:45.124Z,11.70
2017-10-24T16:03:12.811Z,11.70
2017-10-24T16:05:41.152Z,11.70
2017-10-24T16:08:08.742Z,11.70
2017-10-24T16:10:37.816Z,11.70
2017-10-24T16:13:05.416Z,11.70
2017-10-24T16:15:33.744Z,11.70
2017-10-24T16:18:01.541Z,11.70
2017-10-24T16:20:29.108Z,11.70
2017-10-24T16:22:58.672Z,11.70
2017-10-24T16:25:26.267Z,11.70
2017-10-24T16:27:53.828Z,11.70
2017-10-24T16:30:21.416Z,11.70
2017-10-24T16:32:49.744Z,11.70
2017-10-24T16:35:17.332Z,11.70
2017-10-24T16:37:44.904Z,11.70
2017-10-24T16:40:13.258Z,11.80
2017-10-24T16:42:40.824Z,11.70
2017-10-24T16:45:09.919Z,11.70
2017-10-24T16:47:37.480Z,11.70
2017-10-24T16:50:05.068Z,11.80
2017-10-24T16:52:33.392Z,11.80
2017-10-24T16:55:01.004Z,11.80
2017-10-24T16:57:29.336Z,11.80
2017-10-24T16:59:57.856Z,11.80
2017-10-24T17:02:25.508Z,11.80
2017-10-24T17:04:53.124Z,11.80
2017-10-24T17:07:20.693Z,11.80
2017-10-24T17:09:48.255Z,11.80
2017-10-24T17:12:15.839Z,11.80
2017-10-24T17:14:43.409Z,11.80
2017-10-24T17:17:11.076Z,11.90
2017-10-24T17:19:38.740Z,11.90
2017-10-24T17:22:06.331Z,11.90
2017-10-24T17:24:33.900Z,11.90
2017-10-24T17:27:01.488Z,11.90
2017-10-24T17:29:29.056Z,11.90
2017-10-24T17:31:58.580Z,11.90
2017-10-24T17:34:26.253Z,11.90
2017-10-24T17:36:53.876Z,11.90
2017-10-24T17:39:21.443Z,11.90
2017-10-24T17:41:49.019Z,11.90
2017-10-24T17:44:17.768Z,11.90
2017-10-24T17:46:45.336Z,11.90
2017-10-24T17:49:12.902Z,11.90
2017-10-24T17:51:40.496Z,11.90
2017-10-24T17:54:09.568Z,11.90
2017-10-24T17:56:37.472Z,11.90
2017-10-24T17:59:05.036Z,11.90
2017-10-24T18:01:33.368Z,11.90
2017-10-24T18:04:00.964Z,11.90
2017-10-24T18:06:29.300Z,11.90
2017-10-24T18:08:58.748Z,11.80
2017-10-24T18:11:26.313Z,11.80
2017-10-24T18:13:53.984Z,11.80
2017-10-24T18:16:21.551Z,11.80
2017-10-24T18:18:49.940Z,11.80
2017-10-24T18:21:18.267Z,11.80
2017-10-24T18:23:45.861Z,11.80
2017-10-24T18:26:14.216Z,11.80
2017-10-24T18:28:41.788Z,11.80
2017-10-24T18:31:10.153Z,11.80
2017-10-24T18:33:37.720Z,11.70
2017-10-24T18:36:05.480Z,11.70
2017-10-24T18:38:33.049Z,11.70
2017-10-24T18:41:00.612Z,11.70
2017-10-24T18:43:28.969Z,11.70
2017-10-24T18:45:58.616Z,11.70
2017-10-24T18:48:26.953Z,11.60
2017-10-24T18:50:55.873Z,11.60
2017-10-24T18:53:23.732Z,11.60
2017-10-24T18:55:51.327Z,11.60
2017-10-24T18:58:19.688Z,11.50
2017-10-24T19:00:47.273Z,11.50
2017-10-24T19:03:15.632Z,11.50
2017-10-24T19:05:43.204Z,11.50
2017-10-24T19:08:11.569Z,11.50
2017-10-24T19:10:39.133Z,11.50
2017-10-24T19:13:07.491Z,11.60
2017-10-24T19:15:35.056Z,11.50
2017-10-24T19:18:03.454Z,11.50
2017-10-24T19:20:31.800Z,11.50
2017-10-24T19:22:59.488Z,11.50
2017-10-24T19:25:27.820Z,11.50
2017-10-24T19:27:57.904Z,11.60
2017-10-24T19:30:26.264Z,11.60
2017-10-24T19:32:54.757Z,11.60
2017-10-24T19:35:23.120Z,11.60
2017-10-24T19:37:50.688Z,11.50
2017-10-24T19:40:18.352Z,11.50
2017-10-24T19:42:45.921Z,11.50
2017-10-24T19:45:13.516Z,11.50
2017-10-24T19:47:41.092Z,11.50
2017-10-24T19:50:08.796Z,11.50
2017-10-24T19:52:36.465Z,11.50
2017-10-24T19:55:04.805Z,11.50
2017-10-24T19:57:32.404Z,11.50
2017-10-24T20:00:03.636Z,11.50
2017-10-24T20:02:31.237Z,11.50
2017-10-24T20:04:59.128Z,11.50
2017-10-24T20:07:27.432Z,11.50
2017-10-24T20:09:56.940Z,11.60
2017-10-24T20:12:24.510Z,11.60
2017-10-24T20:14:52.100Z,11.60
2017-10-24T20:17:20.442Z,11.60
2017-10-24T20:19:48.017Z,11.60
2017-10-24T20:22:15.616Z,11.70
2017-10-24T20:24:43.180Z,11.70
2017-10-24T20:27:10.775Z,11.70
2017-10-24T20:29:38.349Z,11.70
2017-10-24T20:32:05.939Z,11.80
2017-10-24T20:34:34.408Z,11.80
2017-10-24T20:37:02.073Z,11.80
2017-10-24T20:39:29.649Z,11.80
2017-10-24T20:41:57.932Z,11.80
2017-10-24T20:44:26.270Z,11.90
2017-10-24T20:46:53.861Z,11.90
2017-10-24T20:49:22.195Z,11.90
2017-10-24T20:51:49.796Z,11.90
2017-10-24T20:54:18.137Z,11.90
2017-10-24T20:56:45.891Z,11.90
2017-10-24T20:59:13.461Z,11.90
2017-10-24T21:01:50.604Z,11.90
2017-10-24T21:04:18.942Z,11.90
2017-10-24T21:06:46.529Z,11.90
2017-10-24T21:09:14.864Z,12.00
2017-10-24T21:11:42.534Z,11.90
2017-10-24T21:14:10.114Z,12.00
2017-10-24T21:16:37.741Z,12.00
2017-10-24T21:19:05.316Z,12.00
2017-10-24T21:21:32.885Z,12.00
2017-10-24T21:24:00.485Z,12.00
2017-10-24T21:26:28.900Z,12.00
2017-10-24T21:28:58.753Z,12.00
2017-10-24T21:31:26.325Z,12.00
2017-10-24T21:33:54.080Z,12.10
2017-10-24T21:36:21.644Z,12.10
2017-10-24T21:38:49.208Z,12.10
2017-10-24T21:41:16.800Z,12.10
2017-10-24T21:43:44.629Z,12.10
2017-10-24T21:46:14.651Z,12.10
2017-10-24T21:48:42.224Z,12.10
2017-10-24T21:51:10.583Z,12.10
2017-10-24T21:56:13.312Z,12.10
2017-10-24T21:58:41.648Z,12.10
2017-10-24T22:01:09.239Z,12.10
2017-10-24T22:03:41.182Z,12.10
2017-10-24T22:06:08.988Z,12.00
2017-10-24T22:08:36.563Z,12.10
2017-10-24T22:11:04.316Z,12.10
2017-10-24T22:13:31.897Z,12.10
2017-10-24T22:15:59.460Z,12.10
2017-10-24T22:18:27.055Z,12.10
2017-10-24T22:20:56.736Z,12.10
2017-10-24T22:23:27.497Z,12.10
2017-10-24T22:25:55.887Z,12.10
2017-10-24T22:28:23.481Z,12.10
2017-10-24T22:30:51.049Z,12.10
2017-10-24T22:33:21.064Z,12.10
2017-10-24T22:35:48.628Z,12.10
2017-10-24T22:38:16.264Z,12.10
2017-10-24T22:40:44.599Z,12.10
2017-10-24T22:43:12.192Z,12.10
2017-10-24T22:45:39.848Z,12.10
2017-10-24T22:48:07.623Z,12.10
2017-10-24T22:50:35.192Z,12.10
2017-10-24T22:53:03.528Z,12.20
2017-10-24T22:55:31.215Z,12.10
2017-10-24T22:58:00.293Z,12.20
2017-10-24T23:00:28.000Z,12.20
2017-10-24T23:02:56.648Z,12.20
2017-10-24T23:05:24.219Z,12.20
2017-10-24T23:07:53.324Z,12.20
2017-10-24T23:10:20.948Z,12.20
2017-10-24T23:12:48.545Z,12.20
2017-10-24T23:15:16.124Z,12.30
2017-10-24T23:17:44.484Z,12.30
2017-10-24T23:20:12.152Z,12.20
2017-10-24T23:22:39.760Z,12.30
2017-10-24T23:25:07.327Z,12.30
2017-10-24T23:27:34.897Z,12.30
2017-10-24T23:30:02.500Z,12.30
2017-10-24T23:32:30.831Z,12.30
2017-10-24T23:34:58.417Z,12.30
2017-10-24T23:37:26.087Z,12.40
2017-10-24T23:39:53.678Z,12.40
2017-10-24T23:42:22.011Z,12.40
2017-10-24T23:44:49.617Z,12.40
2017-10-24T23:47:17.951Z,12.40
2017-10-24T23:49:45.725Z,12.40
2017-10-24T23:52:13.306Z,12.40
2017-10-24T23:54:41.649Z,12.50
2017-10-24T23:57:09.245Z,12.50
2017-10-24T23:59:37.593Z,12.50
